Time;durP1;ratioP1;P1;durP2;ratioP2;P2;SDS_P1;SDS_P2;PMS_P1;PMS_P2;Temp;Humidity;BMP_temperature;BMP_pressure;BME280_temperature;BME280_humidity;BME280_pressure;Samples;Min_cycle;Max_cycle;Signal;HPM_P1;HPM_P2
2021/01/02 00:01:35;;;;;;;60.92;17.88;;;0.80;99.90;;;;;;5036859;28;20152;-78
2021/01/02 00:04:26;;;;;;;62.28;16.13;;;0.80;99.90;;;;;;5030483;28;20026;-77
2021/01/02 00:07:15;;;;;;;43.15;15.90;;;0.80;99.90;;;;;;5031680;28;20036;-77
2021/01/02 00:09:43;;;;;;;44.20;14.00;;;0.80;99.90;;;;;;5031671;28;20056;-77
2021/01/02 00:12:37;;;;;;;37.45;14.45;;;0.80;99.90;;;;;;5032188;28;20103;-78
2021/01/02 00:15:07;;;;;;;35.28;12.57;;;0.80;99.90;;;;;;5037897;28;20072;-77
2021/01/02 00:18:04;;;;;;;39.80;13.07;;;0.80;99.90;;;;;;5033514;28;20029;-77
2021/01/02 00:21:09;;;;;;;34.88;13.90;;;0.80;99.90;;;;;;5028452;28;20033;-77
2021/01/02 00:24:04;;;;;;;55.60;14.75;;;0.80;99.90;;;;;;5025658;28;20627;-81
2021/01/02 00:26:46;;;;;;;59.70;16.42;;;0.80;99.90;;;;;;5032380;28;20041;-77
2021/01/02 00:29:23;;;;;;;71.15;17.45;;;0.70;99.90;;;;;;5006942;28;20045;-78
2021/01/02 00:32:23;;;;;;;28.98;12.38;;;0.70;99.90;;;;;;5030605;28;20037;-78
2021/01/02 00:35:01;;;;;;;60.28;13.32;;;0.80;99.90;;;;;;5027969;28;20076;-76
2021/01/02 00:38:04;;;;;;;37.28;13.55;;;0.80;99.90;;;;;;5030094;28;20414;-78
2021/01/02 00:40:31;;;;;;;85.43;14.80;;;0.80;99.90;;;;;;5020505;28;20045;-77
2021/01/02 00:42:57;;;;;;;56.60;15.40;;;0.80;99.90;;;;;;5033008;28;20029;-77
2021/01/02 00:45:29;;;;;;;53.45;14.55;;;0.70;99.90;;;;;;5030960;28;20037;-77
2021/01/02 00:47:55;;;;;;;38.30;13.43;;;0.70;99.90;;;;;;5033645;28;20037;-78
2021/01/02 00:50:26;;;;;;;60.45;15.52;;;0.70;99.90;;;;;;5034330;28;20108;-78
2021/01/02 00:52:54;;;;;;;44.42;15.30;;;0.70;99.90;;;;;;5026625;28;20033;-78
2021/01/02 00:55:44;;;;;;;68.70;15.13;;;0.70;99.90;;;;;;5030040;28;20030;-77
2021/01/02 00:58:42;;;;;;;35.25;15.00;;;0.70;99.90;;;;;;5028672;28;20034;-79
2021/01/02 01:01:19;;;;;;;35.28;13.82;;;0.70;99.90;;;;;;5025772;28;20112;-77
2021/01/02 01:04:09;;;;;;;43.67;14.60;;;0.70;99.90;;;;;;5029029;28;20041;-77
2021/01/02 01:06:38;;;;;;;34.65;14.45;;;0.70;99.90;;;;;;5037714;28;20515;-78
2021/01/02 01:09:05;;;;;;;39.30;15.48;;;0.70;99.90;;;;;;5027955;28;20072;-77
2021/01/02 01:11:36;;;;;;;60.97;15.40;;;0.70;99.90;;;;;;5023696;28;20037;-77
2021/01/02 01:14:05;;;;;;;40.50;15.77;;;0.70;99.90;;;;;;5030134;28;20045;-78
2021/01/02 01:16:44;;;;;;;39.78;13.57;;;0.70;99.90;;;;;;5030272;28;20048;-79
2021/01/02 01:19:11;;;;;;;64.20;15.80;;;0.70;99.90;;;;;;5027701;28;20590;-77
2021/01/02 01:21:43;;;;;;;56.55;16.42;;;0.70;99.90;;;;;;5020592;28;20125;-78
2021/01/02 01:24:12;;;;;;;46.08;14.18;;;0.60;99.90;;;;;;5032108;28;20038;-78
2021/01/02 01:26:56;;;;;;;47.22;15.25;;;0.60;99.90;;;;;;5031805;28;20026;-78
2021/01/02 01:29:26;;;;;;;42.97;14.85;;;0.60;99.90;;;;;;5033441;28;20048;-78
2021/01/02 01:31:58;;;;;;;69.60;15.60;;;0.60;99.90;;;;;;5039451;28;20041;-77
2021/01/02 01:34:26;;;;;;;48.08;15.55;;;0.60;99.90;;;;;;5031715;28;20037;-77
2021/01/02 01:36:53;;;;;;;79.35;16.02;;;0.60;99.90;;;;;;5029290;28;20072;-78
2021/01/02 01:39:23;;;;;;;39.53;15.68;;;0.60;99.90;;;;;;5029391;28;20438;-77
2021/01/02 01:41:57;;;;;;;49.53;15.20;;;0.60;99.90;;;;;;5030543;28;20036;-78
2021/01/02 01:44:56;;;;;;;41.50;13.48;;;0.60;99.90;;;;;;5028506;28;20056;-77
2021/01/02 01:47:36;;;;;;;35.63;13.65;;;0.70;99.90;;;;;;5022999;28;20033;-76
2021/01/02 01:50:25;;;;;;;42.33;15.65;;;0.70;99.90;;;;;;5027693;28;20071;-78
2021/01/02 01:52:52;;;;;;;52.95;15.43;;;0.70;99.90;;;;;;5028096;28;20050;-77
2021/01/02 01:55:43;;;;;;;82.47;16.73;;;0.60;99.90;;;;;;5032133;28;20057;-79
2021/01/02 01:58:16;;;;;;;35.58;13.05;;;0.60;99.90;;;;;;5029854;28;20033;-76
2021/01/02 02:00:46;;;;;;;49.63;13.68;;;0.60;99.90;;;;;;5024828;28;20060;-77
2021/01/02 02:03:23;;;;;;;43.45;13.48;;;0.60;99.90;;;;;;5030510;28;20037;-78
2021/01/02 02:05:51;;;;;;;33.67;12.80;;;0.70;99.90;;;;;;5027356;28;20036;-76
2021/01/02 02:08:24;;;;;;;44.58;14.32;;;0.60;99.90;;;;;;5028780;28;20579;-76
2021/01/02 02:11:04;;;;;;;46.95;14.27;;;0.60;99.90;;;;;;5031759;28;20041;-78
2021/01/02 02:13:43;;;;;;;35.13;14.35;;;0.60;99.90;;;;;;5050200;28;20114;-79
2021/01/02 02:16:13;;;;;;;31.40;13.05;;;0.60;99.90;;;;;;5034169;28;20087;-77
2021/01/02 02:18:49;;;;;;;39.67;15.40;;;0.70;99.90;;;;;;5040814;28;20051;-78
2021/01/02 02:21:26;;;;;;;36.13;14.65;;;0.70;99.90;;;;;;5045398;28;20513;-77
2021/01/02 02:23:57;;;;;;;29.45;12.50;;;0.80;99.90;;;;;;5026545;28;20137;-77
2021/01/02 02:26:36;;;;;;;38.65;13.77;;;0.70;99.90;;;;;;5029634;28;20048;-77
2021/01/02 02:29:17;;;;;;;37.80;15.43;;;0.80;99.90;;;;;;5024768;28;20041;-77
2021/01/02 02:31:46;;;;;;;;;;;0.80;99.90;;;;;;5030503;28;20471;-79
2021/01/02 02:34:13;;;;;;;50.20;15.38;;;0.80;99.90;;;;;;5030655;28;20003;-77
2021/01/02 02:36:39;;;;;;;45.50;15.50;;;0.70;99.90;;;;;;5020334;28;20033;-77
2021/01/02 02:39:12;;;;;;;36.25;14.88;;;0.60;99.90;;;;;;5026753;28;20128;-77
2021/01/02 02:41:46;;;;;;;36.13;14.50;;;0.60;99.90;;;;;;5027536;28;20454;-77
2021/01/02 02:44:17;;;;;;;58.85;16.17;;;0.60;99.90;;;;;;5027055;28;20487;-79
2021/01/02 02:46:45;;;;;;;47.90;15.45;;;0.50;99.90;;;;;;5030681;28;20026;-77
2021/01/02 02:49:14;;;;;;;41.72;16.80;;;0.50;99.90;;;;;;5025801;28;20445;-79
2021/01/02 02:51:58;;;;;;;57.78;16.55;;;0.50;99.90;;;;;;5030490;28;20056;-77
2021/01/02 02:54:25;;;;;;;40.95;14.75;;;0.50;99.90;;;;;;5029150;28;20132;-77
2021/01/02 02:56:51;;;;;;;86.03;17.02;;;0.50;99.90;;;;;;5030605;28;20434;-77
2021/01/02 02:59:17;;;;;;;53.50;16.85;;;0.40;99.90;;;;;;5028392;28;20026;-77
2021/01/02 03:01:47;;;;;;;35.45;15.30;;;0.40;99.90;;;;;;5027002;28;20041;-78
2021/01/02 03:04:15;;;;;;;46.70;15.45;;;0.40;99.90;;;;;;5028005;28;20025;-80
2021/01/02 03:06:42;;;;;;;52.42;14.63;;;0.40;99.90;;;;;;5027926;28;20036;-77
2021/01/02 03:09:09;;;;;;;35.42;13.45;;;0.40;99.90;;;;;;5028272;28;20068;-77
2021/01/02 03:11:35;;;;;;;32.63;14.80;;;0.30;99.90;;;;;;5036368;28;20025;-77
2021/01/02 03:14:01;;;;;;;35.95;15.20;;;0.40;99.90;;;;;;5027976;28;20052;-77
2021/01/02 03:16:27;;;;;;;33.08;14.80;;;0.40;99.90;;;;;;4994651;28;20446;-77
2021/01/02 03:18:53;;;;;;;36.17;15.75;;;0.50;99.90;;;;;;5028685;28;20040;-77
2021/01/02 03:21:22;;;;;;;32.70;14.15;;;0.50;99.90;;;;;;5027704;28;20038;-77
2021/01/02 03:23:49;;;;;;;29.25;13.70;;;0.50;99.90;;;;;;5030650;28;20065;-78
2021/01/02 03:26:16;;;;;;;36.60;15.77;;;0.50;99.90;;;;;;5028415;28;20033;-77
2021/01/02 03:28:49;;;;;;;30.98;13.38;;;0.50;99.90;;;;;;5027108;28;20067;-77
2021/01/02 03:31:15;;;;;;;24.70;12.52;;;0.60;99.90;;;;;;5029076;28;20045;-77
2021/01/02 03:33:41;;;;;;;31.15;13.30;;;0.60;99.90;;;;;;5023014;28;20041;-78
2021/01/02 03:36:06;;;;;;;29.35;13.25;;;0.70;99.90;;;;;;5030252;28;20051;-79
2021/01/02 03:38:33;;;;;;;26.42;12.93;;;0.70;99.90;;;;;;5029363;28;20038;-77
2021/01/02 03:41:00;;;;;;;30.38;12.73;;;0.70;99.90;;;;;;5030757;28;20372;-76
2021/01/02 03:43:27;;;;;;;27.23;12.57;;;0.70;99.90;;;;;;5020513;28;20040;-77
2021/01/02 03:45:53;;;;;;;25.80;12.93;;;0.70;99.90;;;;;;5028464;28;20041;-76
2021/01/02 03:48:19;;;;;;;28.20;12.38;;;0.70;99.90;;;;;;5021256;28;20033;-77
2021/01/02 03:50:44;;;;;;;28.95;13.02;;;0.60;99.90;;;;;;5007441;28;20504;-79
2021/01/02 03:53:10;;;;;;;27.05;13.23;;;0.60;99.90;;;;;;5035749;28;20037;-78
2021/01/02 03:55:36;;;;;;;29.50;13.48;;;0.50;99.90;;;;;;5030130;28;20053;-76
2021/01/02 03:58:02;;;;;;;27.75;13.77;;;0.60;99.90;;;;;;5032948;28;20029;-77
2021/01/02 04:00:28;;;;;;;28.17;13.13;;;0.50;99.90;;;;;;5028801;28;20033;-77
2021/01/02 04:02:54;;;;;;;32.45;13.55;;;0.50;99.90;;;;;;5031052;28;20045;-78
2021/01/02 04:05:20;;;;;;;28.05;13.00;;;0.50;99.90;;;;;;5033272;28;20490;-77
2021/01/02 04:07:45;;;;;;;30.65;14.95;;;0.60;99.90;;;;;;5015564;28;20037;-76
2021/01/02 04:10:12;;;;;;;26.83;13.30;;;0.50;99.90;;;;;;5010022;28;20049;-77
2021/01/02 04:12:38;;;;;;;29.35;14.05;;;0.50;99.90;;;;;;5032396;28;20128;-77
2021/01/02 04:15:05;;;;;;;31.50;14.73;;;0.50;99.90;;;;;;5033722;28;20068;-77
2021/01/02 04:17:30;;;;;;;31.77;15.18;;;0.50;99.90;;;;;;5029166;28;20464;-77
2021/01/02 04:19:56;;;;;;;28.90;13.07;;;0.50;99.90;;;;;;5029731;28;20088;-77
2021/01/02 04:22:21;;;;;;;29.90;13.40;;;0.50;99.90;;;;;;5026377;28;20483;-78
2021/01/02 04:24:47;;;;;;;28.27;13.35;;;0.50;99.90;;;;;;5031597;28;20045;-78
2021/01/02 04:27:13;;;;;;;27.05;13.02;;;0.50;99.90;;;;;;5013205;28;20038;-80
2021/01/02 04:29:39;;;;;;;34.05;16.13;;;0.50;99.90;;;;;;5033172;28;20041;-78
2021/01/02 04:32:06;;;;;;;34.30;15.88;;;0.60;99.90;;;;;;5009170;28;20526;-77
2021/01/02 04:34:31;;;;;;;30.70;14.82;;;0.60;99.90;;;;;;5025240;28;20513;-78
2021/01/02 04:36:57;;;;;;;32.28;14.55;;;0.60;99.90;;;;;;5028921;28;20041;-79
2021/01/02 04:39:24;;;;;;;35.47;15.65;;;0.60;99.90;;;;;;5028401;28;20037;-78
2021/01/02 04:41:50;;;;;;;36.15;16.40;;;0.60;99.90;;;;;;5025696;28;20430;-77
2021/01/02 04:44:17;;;;;;;43.40;15.73;;;0.60;99.90;;;;;;5029897;28;20052;-77
2021/01/02 04:46:47;;;;;;;37.22;15.40;;;0.60;99.90;;;;;;5012490;28;20033;-77
2021/01/02 04:49:13;;;;;;;42.20;15.45;;;0.60;99.90;;;;;;5033180;28;20037;-77
2021/01/02 04:51:40;;;;;;;43.38;17.00;;;0.50;99.90;;;;;;5013019;28;20041;-78
2021/01/02 04:54:06;;;;;;;44.03;17.85;;;0.60;99.90;;;;;;5041439;28;20077;-79
2021/01/02 04:56:38;;;;;;;38.33;14.70;;;0.60;99.90;;;;;;5033000;28;20093;-77
2021/01/02 04:59:11;;;;;;;44.53;15.82;;;0.60;99.90;;;;;;5034823;28;20504;-77
2021/01/02 05:01:41;;;;;;;36.60;14.23;;;0.70;99.90;;;;;;5031811;28;20368;-79
2021/01/02 05:04:08;;;;;;;34.70;15.00;;;0.70;99.90;;;;;;5012255;28;20411;-78
2021/01/02 05:06:33;;;;;;;38.55;16.80;;;0.60;99.90;;;;;;5024988;28;20052;-77
2021/01/02 05:08:59;;;;;;;41.00;16.45;;;0.50;99.90;;;;;;5008711;28;20050;-78
2021/01/02 05:11:25;;;;;;;40.78;15.10;;;0.50;99.90;;;;;;5027052;28;20042;-77
2021/01/02 05:14:00;;;;;;;38.17;16.90;;;0.50;99.90;;;;;;5024789;28;20442;-77
2021/01/02 05:16:39;;;;;;;36.47;16.08;;;0.50;99.90;;;;;;5029465;28;20033;-78
2021/01/02 05:19:07;;;;;;;35.75;15.73;;;0.50;99.90;;;;;;5028603;28;20033;-78
2021/01/02 05:21:35;;;;;;;38.90;16.70;;;0.50;99.90;;;;;;5025470;28;20037;-77
2021/01/02 05:24:08;;;;;;;36.13;15.85;;;0.50;99.90;;;;;;5034416;28;20045;-77
2021/01/02 05:26:35;;;;;;;41.03;16.80;;;0.50;99.90;;;;;;5028319;28;20032;-77
2021/01/02 05:29:09;;;;;;;37.88;15.43;;;0.50;99.90;;;;;;5031470;28;20032;-77
2021/01/02 05:31:37;;;;;;;41.88;16.17;;;0.50;99.90;;;;;;5025146;28;20044;-78
2021/01/02 05:34:11;;;;;;;36.13;15.63;;;0.50;99.90;;;;;;5024364;28;20415;-77
2021/01/02 05:36:37;;;;;;;32.55;16.15;;;0.60;99.90;;;;;;5028185;28;20045;-78
2021/01/02 05:39:06;;;;;;;30.67;14.40;;;0.60;99.90;;;;;;5028223;28;20045;-78
2021/01/02 05:41:50;;;;;;;37.22;15.32;;;0.60;99.90;;;;;;5024236;28;20068;-79
2021/01/02 05:44:17;;;;;;;32.70;13.73;;;0.60;99.90;;;;;;5033779;28;20183;-80
2021/01/02 05:46:51;;;;;;;34.58;13.65;;;0.70;99.90;;;;;;5032988;28;20029;-78
2021/01/02 05:49:35;;;;;;;37.70;15.63;;;0.70;99.90;;;;;;5021616;28;20463;-79
2021/01/02 05:52:04;;;;;;;36.60;14.18;;;0.60;99.90;;;;;;5026514;28;20541;-78
2021/01/02 05:54:31;;;;;;;31.60;13.60;;;0.60;99.90;;;;;;5036010;28;20498;-78
2021/01/02 05:56:59;;;;;;;31.63;14.40;;;0.60;99.90;;;;;;5029503;28;20048;-77
2021/01/02 05:59:30;;;;;;;36.70;15.90;;;0.60;99.90;;;;;;5029726;28;20078;-77
2021/01/02 06:01:56;;;;;;;;;;;0.60;99.90;;;;;;5030625;28;20048;-77
2021/01/02 06:04:21;;;;;;;33.72;13.48;;;0.60;99.90;;;;;;5026426;28;20274;-78
2021/01/02 06:07:05;;;;;;;32.72;14.15;;;0.60;99.90;;;;;;5029275;28;20033;-77
2021/01/02 06:09:33;;;;;;;36.03;15.23;;;0.70;99.90;;;;;;5027998;28;20453;-80
2021/01/02 06:12:03;;;;;;;33.13;14.90;;;0.60;99.90;;;;;;5031181;28;20041;-77
2021/01/02 06:14:32;;;;;;;35.63;14.40;;;0.60;99.90;;;;;;5024387;28;20117;-76
2021/01/02 06:17:04;;;;;;;37.28;14.45;;;0.60;99.90;;;;;;5023480;28;20116;-77
2021/01/02 06:19:30;;;;;;;37.42;15.23;;;0.60;99.90;;;;;;5045787;28;20041;-78
2021/01/02 06:21:56;;;;;;;40.35;16.02;;;0.70;99.90;;;;;;5029501;28;20399;-79
2021/01/02 06:24:22;;;;;;;37.60;16.33;;;0.90;99.90;;;;;;5025687;28;20125;-78
2021/01/02 06:26:47;;;;;;;36.70;15.45;;;0.70;99.90;;;;;;5034100;28;20514;-79
2021/01/02 06:29:13;;;;;;;38.88;16.45;;;0.80;99.90;;;;;;5027685;28;20030;-76
2021/01/02 06:31:39;;;;;;;37.03;14.88;;;0.80;99.90;;;;;;5023661;28;20040;-78
2021/01/02 06:34:05;;;;;;;36.08;14.85;;;0.80;99.90;;;;;;5030992;28;20029;-77
2021/01/02 06:36:35;;;;;;;35.50;14.88;;;0.70;99.90;;;;;;5031129;28;20024;-76
2021/01/02 06:39:23;;;;;;;41.47;16.92;;;0.70;99.90;;;;;;5027761;28;20029;-78
2021/01/02 06:41:50;;;;;;;36.63;15.13;;;0.70;99.90;;;;;;5031717;28;20083;-78
2021/01/02 06:44:45;;;;;;;33.22;13.32;;;0.70;99.90;;;;;;5029239;28;20045;-78
2021/01/02 06:47:32;;;;;;;33.53;14.32;;;0.70;99.90;;;;;;5025958;28;20029;-77
2021/01/02 06:49:58;;;;;;;36.13;14.30;;;0.70;99.90;;;;;;5028801;28;20049;-77
2021/01/02 06:52:36;;;;;;;38.63;17.23;;;0.70;99.90;;;;;;5031512;28;20164;-79
2021/01/02 06:55:19;;;;;;;29.15;12.75;;;0.60;99.90;;;;;;5028228;28;20041;-77
2021/01/02 06:57:45;;;;;;;26.98;11.55;;;0.70;99.90;;;;;;5021919;28;20056;-77
2021/01/02 07:00:26;;;;;;;31.58;13.50;;;0.80;99.90;;;;;;5027873;28;20391;-78
2021/01/02 07:02:56;;;;;;;26.98;11.98;;;0.80;99.90;;;;;;5031832;28;20033;-79
2021/01/02 07:05:47;;;;;;;27.00;11.63;;;0.80;99.90;;;;;;5028684;28;20060;-78
2021/01/02 07:08:45;;;;;;;27.65;12.85;;;0.80;99.90;;;;;;5027354;28;20025;-78
2021/01/02 07:11:35;;;;;;;27.92;11.82;;;0.80;99.90;;;;;;5030028;28;20033;-78
2021/01/02 07:16:51;;;;;;;25.02;11.90;;;0.90;99.90;;;;;;5027890;28;20519;-77
2021/01/02 07:19:31;;;;;;;31.90;12.73;;;0.90;99.90;;;;;;5025651;28;20036;-79
2021/01/02 07:22:09;;;;;;;29.73;14.13;;;0.90;99.90;;;;;;5027675;28;20033;-78
2021/01/02 07:24:57;;;;;;;31.33;13.85;;;0.90;99.90;;;;;;5029030;28;20033;-80
2021/01/02 07:27:34;;;;;;;31.67;13.52;;;0.90;99.90;;;;;;5030076;28;20032;-78
2021/01/02 07:30:12;;;;;;;34.03;13.85;;;0.90;99.90;;;;;;5029967;28;20096;-77
2021/01/02 07:32:39;;;;;;;32.58;14.38;;;0.90;99.90;;;;;;5032776;28;20025;-78
2021/01/02 07:35:13;;;;;;;32.03;13.38;;;0.90;99.90;;;;;;5037795;28;20028;-78
2021/01/02 07:37:40;;;;;;;26.20;11.77;;;0.90;99.90;;;;;;5031129;28;20124;-76
2021/01/02 07:40:11;;;;;;;30.48;13.73;;;0.90;99.90;;;;;;5032581;28;20041;-78
2021/01/02 07:42:47;;;;;;;32.28;12.68;;;0.90;99.90;;;;;;5034381;28;20076;-78
2021/01/02 07:45:15;;;;;;;31.92;13.48;;;0.90;99.90;;;;;;5034634;28;20109;-78
2021/01/02 07:47:52;;;;;;;30.08;13.45;;;1.00;99.90;;;;;;5033959;28;20045;-77
2021/01/02 07:50:19;;;;;;;29.73;12.73;;;1.00;99.90;;;;;;5035330;28;20059;-78
2021/01/02 07:52:57;;;;;;;31.83;13.63;;;1.00;99.90;;;;;;5031150;28;20548;-79
2021/01/02 07:55:25;;;;;;;31.88;13.80;;;1.00;99.90;;;;;;5033946;28;20033;-77
2021/01/02 07:57:50;;;;;;;30.83;14.00;;;1.00;99.90;;;;;;5030252;28;20044;-76
2021/01/02 08:00:19;;;;;;;32.17;12.63;;;1.10;99.90;;;;;;5033818;28;20022;-77
2021/01/02 08:02:45;;;;;;;31.23;13.25;;;1.10;99.90;;;;;;5031535;28;20033;-77
2021/01/02 08:05:13;;;;;;;35.92;15.23;;;1.20;99.90;;;;;;5036546;28;20552;-78
2021/01/02 08:07:40;;;;;;;29.48;12.55;;;1.20;99.90;;;;;;5034325;28;20040;-79
2021/01/02 08:10:10;;;;;;;30.55;13.70;;;1.20;99.90;;;;;;5036306;28;20030;-80
2021/01/02 08:12:36;;;;;;;30.10;13.93;;;1.20;99.90;;;;;;5034965;28;20106;-80
2021/01/02 08:15:04;;;;;;;27.42;12.80;;;1.20;99.90;;;;;;5033486;28;20402;-78
2021/01/02 08:17:39;;;;;;;31.58;13.85;;;1.20;99.90;;;;;;5034492;28;20042;-79
2021/01/02 08:20:06;;;;;;;33.38;15.30;;;1.20;99.90;;;;;;5032512;28;20076;-78
2021/01/02 08:22:35;;;;;;;31.35;13.77;;;1.10;99.90;;;;;;5031994;28;20491;-78
2021/01/02 08:25:16;;;;;;;29.23;13.60;;;1.20;99.90;;;;;;5034380;28;20414;-76
2021/01/02 08:27:44;;;;;;;28.02;13.00;;;1.20;99.90;;;;;;5020181;28;20042;-79
2021/01/02 08:30:11;;;;;;;28.55;13.20;;;1.20;99.90;;;;;;5033240;28;20029;-77
2021/01/02 08:32:40;;;;;;;28.02;14.18;;;1.20;99.90;;;;;;5027766;28;20438;-77
2021/01/02 08:35:36;;;;;;;29.50;13.73;;;1.20;99.90;;;;;;5031695;28;20079;-77
2021/01/02 08:38:04;;;;;;;30.05;13.55;;;1.20;99.90;;;;;;5029123;28;20038;-78
2021/01/02 08:40:38;;;;;;;31.45;13.45;;;1.10;99.90;;;;;;5025663;28;20033;-78
2021/01/02 08:43:04;;;;;;;30.52;14.35;;;1.10;99.90;;;;;;5029937;28;20071;-78
2021/01/02 08:45:33;;;;;;;25.60;12.20;;;1.10;99.90;;;;;;5018937;28;20049;-78
2021/01/02 08:48:12;;;;;;;29.45;13.05;;;1.10;99.90;;;;;;5033217;28;20034;-78
2021/01/02 08:50:41;;;;;;;31.35;14.05;;;1.10;99.90;;;;;;5034701;28;20057;-77
2021/01/02 08:53:22;;;;;;;26.65;12.75;;;1.10;99.90;;;;;;5028188;28;20056;-78
2021/01/02 08:55:48;;;;;;;26.30;12.40;;;1.10;99.90;;;;;;5028137;28;20383;-79
2021/01/02 08:58:14;;;;;;;29.05;12.77;;;1.10;99.90;;;;;;5034652;28;20040;-78
2021/01/02 09:00:39;;;;;;;31.55;12.82;;;1.10;99.90;;;;;;5015030;28;20033;-78
2021/01/02 09:03:07;;;;;;;27.85;12.55;;;1.10;99.90;;;;;;5033130;28;20112;-78
2021/01/02 09:05:34;;;;;;;24.30;12.30;;;1.10;99.90;;;;;;5033012;28;20517;-80
2021/01/02 09:08:05;;;;;;;26.58;12.07;;;1.10;99.90;;;;;;5026075;28;20057;-78
2021/01/02 09:10:41;;;;;;;22.02;10.80;;;1.20;99.90;;;;;;5033893;28;20434;-77
2021/01/02 09:13:21;;;;;;;23.08;11.85;;;1.10;99.90;;;;;;5033675;28;20064;-79
2021/01/02 09:15:52;;;;;;;23.08;10.73;;;1.20;99.90;;;;;;5043574;28;20040;-77
2021/01/02 09:18:35;;;;;;;20.40;10.02;;;1.20;99.90;;;;;;5029428;28;20030;-80
2021/01/02 09:21:10;;;;;;;22.80;10.65;;;1.20;99.90;;;;;;5031675;28;20139;-78
2021/01/02 09:23:41;;;;;;;22.15;10.95;;;1.20;99.90;;;;;;5038310;28;20391;-78
2021/01/02 09:26:21;;;;;;;21.20;10.77;;;1.10;99.90;;;;;;5025244;28;20473;-79
2021/01/02 09:28:48;;;;;;;21.95;11.18;;;1.20;99.90;;;;;;5030805;28;20048;-78
2021/01/02 09:31:14;;;;;;;24.27;11.98;;;1.20;99.90;;;;;;5042195;28;20167;-78
2021/01/02 09:33:40;;;;;;;23.50;11.00;;;1.20;99.90;;;;;;5043536;28;20525;-78
2021/01/02 09:36:05;;;;;;;23.38;11.32;;;1.40;99.90;;;;;;5014982;28;20442;-81
2021/01/02 09:38:32;;;;;;;19.13;10.25;;;1.30;99.90;;;;;;5026713;28;20458;-78
2021/01/02 09:40:58;;;;;;;22.77;11.20;;;1.30;99.90;;;;;;5028206;28;20042;-78
2021/01/02 09:43:24;;;;;;;21.80;10.75;;;1.30;99.90;;;;;;5020928;28;20052;-78
2021/01/02 09:45:50;;;;;;;20.95;10.77;;;1.40;99.90;;;;;;5031061;28;20037;-77
2021/01/02 09:48:17;;;;;;;21.33;10.70;;;1.40;99.90;;;;;;5028599;28;20042;-77
2021/01/02 09:50:44;;;;;;;22.30;11.05;;;1.40;99.90;;;;;;5033709;28;20072;-79
2021/01/02 09:53:11;;;;;;;22.95;11.70;;;1.50;99.90;;;;;;5031282;28;20096;-78
2021/01/02 09:55:37;;;;;;;22.50;10.98;;;1.50;99.90;;;;;;5032058;28;20120;-78
2021/01/02 09:58:03;;;;;;;23.98;11.43;;;1.50;99.90;;;;;;5031079;28;20120;-76
2021/01/02 10:00:29;;;;;;;27.50;12.05;;;1.50;99.90;;;;;;5029803;28;20407;-77
2021/01/02 10:02:57;;;;;;;21.02;10.63;;;1.60;99.90;;;;;;5009833;28;20048;-79
2021/01/02 10:05:24;;;;;;;25.38;11.68;;;1.60;99.90;;;;;;5031310;28;20041;-78
2021/01/02 10:07:50;;;;;;;24.15;11.55;;;1.60;99.90;;;;;;5029831;28;20495;-78
2021/01/02 10:10:18;;;;;;;22.77;11.10;;;1.60;99.90;;;;;;5030907;28;20068;-78
2021/01/02 10:12:46;;;;;;;22.27;12.13;;;1.60;99.90;;;;;;5032835;28;20042;-77
2021/01/02 10:15:13;;;;;;;26.67;11.70;;;1.60;99.90;;;;;;5031353;28;20136;-78
2021/01/02 10:17:40;;;;;;;20.92;11.25;;;1.60;99.90;;;;;;5036382;28;20202;-76
2021/01/02 10:20:08;;;;;;;24.20;12.02;;;1.60;99.90;;;;;;5032317;28;20057;-77
2021/01/02 10:22:33;;;;;;;27.08;12.15;;;1.60;99.90;;;;;;5031034;28;20029;-78
2021/01/02 10:24:59;;;;;;;24.67;12.25;;;1.60;99.90;;;;;;5034074;28;20056;-78
2021/01/02 10:27:27;;;;;;;25.25;12.98;;;1.70;99.90;;;;;;5028632;28;20098;-78
2021/01/02 10:29:55;;;;;;;27.95;12.98;;;1.90;99.90;;;;;;5027138;28;20112;-77
2021/01/02 10:32:23;;;;;;;24.10;11.88;;;1.90;99.90;;;;;;5017441;28;20041;-77
2021/01/02 10:34:49;;;;;;;22.75;12.90;;;2.00;99.90;;;;;;5029987;28;20115;-77
2021/01/02 10:37:17;;;;;;;23.55;12.20;;;2.00;99.90;;;;;;5034005;28;20033;-77
2021/01/02 10:39:44;;;;;;;26.70;12.98;;;2.00;99.90;;;;;;5026407;28;20033;-78
2021/01/02 10:42:11;;;;;;;23.67;11.45;;;2.10;99.90;;;;;;5027614;28;20032;-77
2021/01/02 10:44:37;;;;;;;24.58;12.48;;;2.10;99.90;;;;;;5033345;28;20029;-78
2021/01/02 10:47:06;;;;;;;22.48;11.70;;;2.10;99.90;;;;;;5032801;28;20537;-78
2021/01/02 10:49:32;;;;;;;24.08;11.43;;;2.00;99.90;;;;;;5014538;28;20518;-77
2021/01/02 10:51:58;;;;;;;24.23;12.48;;;2.10;99.90;;;;;;5027122;28;20125;-77
2021/01/02 10:54:24;;;;;;;22.73;11.48;;;2.10;99.90;;;;;;5010026;28;20045;-77
2021/01/02 10:56:53;;;;;;;24.63;12.32;;;2.10;99.90;;;;;;5007336;28;20042;-77
2021/01/02 10:59:21;;;;;;;24.75;12.88;;;2.10;99.90;;;;;;5037707;28;20030;-76
2021/01/02 11:01:51;;;;;;;25.52;11.82;;;2.10;99.90;;;;;;5030200;28;20064;-76
2021/01/02 11:04:19;;;;;;;26.00;13.02;;;2.20;99.90;;;;;;5030086;28;20494;-76
2021/01/02 11:06:45;;;;;;;22.05;12.90;;;2.20;99.90;;;;;;5022964;28;20116;-77
2021/01/02 11:09:13;;;;;;;25.70;12.90;;;2.30;99.90;;;;;;5028552;28;20033;-76
2021/01/02 11:11:41;;;;;;;22.85;12.32;;;2.30;99.90;;;;;;5030348;28;20026;-76
2021/01/02 11:14:08;;;;;;;24.20;12.90;;;2.30;99.90;;;;;;5037835;28;20041;-78
2021/01/02 11:16:38;;;;;;;26.15;12.45;;;2.30;99.90;;;;;;5034912;28;20029;-77
2021/01/02 11:19:10;;;;;;;25.48;12.98;;;2.40;99.90;;;;;;5032681;28;20029;-78
2021/01/02 11:21:36;;;;;;;26.90;14.40;;;2.40;99.90;;;;;;5035957;28;20030;-79
2021/01/02 11:24:02;;;;;;;26.38;12.70;;;2.40;99.90;;;;;;5036058;28;20052;-78
2021/01/02 11:26:27;;;;;;;25.35;12.95;;;2.50;99.90;;;;;;5008869;28;20041;-76
2021/01/02 11:28:53;;;;;;;24.98;12.88;;;2.50;99.90;;;;;;5032290;28;20137;-76
2021/01/02 11:31:31;;;;;;;23.63;12.55;;;2.50;99.90;;;;;;5013445;28;20410;-76
2021/01/02 11:33:57;;;;;;;27.98;13.35;;;2.60;99.90;;;;;;5030894;28;20037;-79
2021/01/02 11:36:24;;;;;;;26.98;13.65;;;2.60;99.90;;;;;;5030681;28;20060;-76
2021/01/02 11:38:50;;;;;;;26.95;13.63;;;2.70;99.90;;;;;;5029276;28;20369;-76
2021/01/02 11:41:17;;;;;;;28.52;14.55;;;2.70;99.90;;;;;;5031465;28;20124;-76
2021/01/02 11:43:43;;;;;;;28.85;14.98;;;2.70;99.90;;;;;;5033306;28;20033;-75
2021/01/02 11:46:09;;;;;;;26.85;14.35;;;2.70;99.90;;;;;;5031212;28;20049;-78
2021/01/02 11:48:36;;;;;;;27.30;15.30;;;2.80;99.90;;;;;;5022312;28;20072;-78
2021/01/02 11:51:02;;;;;;;29.80;14.10;;;2.80;99.90;;;;;;5011808;28;20144;-75
2021/01/02 11:53:28;;;;;;;26.27;14.25;;;2.80;99.90;;;;;;5027299;28;20068;-76
2021/01/02 11:55:53;;;;;;;25.30;13.07;;;2.90;99.90;;;;;;5044196;28;20503;-79
2021/01/02 11:58:19;;;;;;;27.45;14.02;;;2.80;99.90;;;;;;5028093;28;20030;-78
2021/01/02 12:00:44;;;;;;;27.13;14.60;;;2.80;99.90;;;;;;5010402;28;20057;-78
2021/01/02 12:03:10;;;;;;;29.70;14.85;;;2.80;99.90;;;;;;5029898;28;20073;-77
2021/01/02 12:05:36;;;;;;;28.38;14.15;;;2.90;99.90;;;;;;5027275;28;20411;-79
2021/01/02 12:08:02;;;;;;;30.25;15.55;;;3.00;99.90;;;;;;5020461;28;20047;-77
2021/01/02 12:10:28;;;;;;;26.33;14.45;;;3.00;99.90;;;;;;5029606;28;20033;-77
2021/01/02 12:12:54;;;;;;;26.90;14.63;;;3.10;99.90;;;;;;5018840;28;20041;-77
2021/01/02 12:15:20;;;;;;;30.33;15.23;;;3.10;99.90;;;;;;5005304;28;20586;-78
2021/01/02 12:17:45;;;;;;;27.85;14.57;;;3.10;99.90;;;;;;5035473;28;20665;-76
2021/01/02 12:20:11;;;;;;;28.48;15.20;;;3.10;99.90;;;;;;5024333;28;20121;-77
2021/01/02 12:22:37;;;;;;;25.33;13.88;;;3.10;99.90;;;;;;5028115;28;20037;-76
2021/01/02 12:25:04;;;;;;;24.75;14.10;;;3.20;99.90;;;;;;5014107;28;20068;-78
2021/01/02 12:27:31;;;;;;;27.55;13.73;;;3.20;99.90;;;;;;5030413;28;20033;-77
2021/01/02 12:29:56;;;;;;;26.02;14.32;;;3.30;99.90;;;;;;5037247;28;20392;-77
2021/01/02 12:32:25;;;;;;;27.77;14.02;;;3.40;99.90;;;;;;5012560;28;20060;-77
2021/01/02 12:34:51;;;;;;;26.73;14.32;;;4.50;99.90;;;;;;5032757;28;20040;-81
2021/01/02 12:37:17;;;;;;;33.10;15.55;;;3.30;99.90;;;;;;5028008;28;20037;-77
2021/01/02 12:39:44;;;;;;;30.05;15.43;;;3.20;99.90;;;;;;5027257;28;20095;-75
2021/01/02 12:42:10;;;;;;;27.75;14.88;;;3.30;99.90;;;;;;5032315;28;20034;-78
2021/01/02 12:44:36;;;;;;;27.15;14.77;;;3.30;99.90;;;;;;5031876;28;20491;-77
2021/01/02 12:47:14;;;;;;;30.88;15.88;;;3.40;99.90;;;;;;5026610;28;20030;-78
2021/01/02 12:49:42;;;;;;;29.42;16.70;;;3.40;99.90;;;;;;5031598;28;20037;-76
2021/01/02 12:52:08;;;;;;;30.30;16.38;;;3.50;99.90;;;;;;5037264;28;20064;-79
2021/01/02 12:54:35;;;;;;;32.45;16.17;;;3.60;99.90;;;;;;5032745;28;20645;-76
2021/01/02 12:57:02;;;;;;;31.77;16.73;;;3.70;99.90;;;;;;5025835;28;20034;-77
2021/01/02 12:59:37;;;;;;;29.27;16.02;;;5.00;99.90;;;;;;5027930;28;20033;-78